Ana Sayfa
METAR-TAF:

METAR-TAF

Havaalanları :

Ardmore, Oklahoma, Amerika Birleşik Devletleri

Enlem: 34-18-11N, Boylam: 097-01-10W, yükseklik: 232 m

Güncel hava durumu gözlemi

Rapor saat 18:55 UTC de 25 dakika önce yapıldı.
Rüzgar batı/kuzeybatıdan 15 kt ve 22 kt'a kadar ani rüzgarlar
Sıcaklık 11°C
Nem 76%
Basınç 1007 hPa
Görüş mesafesi: 16.1 km
2300 ft yükseklikte çok bulutlu

METAR: KADM 241855Z 29015G22KT 10SM OVC023 11/07 A2973

Saat: 13:20 (19:20 UTC)


TAF: eksik

4.000'den fazla havaalanı için hava durumu gözlemleri ve tahminleri (METAR ve TAF raporları).

Kullanılabilir istasyonlar harita üzerinde sarı ve kırmızı noktalarla gösterilir.

İstasyonun adını görmek için fareyi noktanın üzerinde gezdirin.

Sonrasında hava gözlem ve tahminlerini görmek için tıklayın.

Haritayı değiştirmek için: yaklaştırmak için siyah artı işaretli yeşil düğmeye ve uzaklaştırmak için de eksi işaretli düğmeye hızla tıklayın; bitişik haritalar için yeşil okları kullanın.


METAR-TAF: